sensor_id;sensor_type;location;lat;lon;timestamp;pressure;altitude;pressure_sealevel;temperature;humidity
40948;BME280;49382;-25.924;28.194;2022-07-15T00:00:30;85716.06;;;15.12;19.87
40948;BME280;49382;-25.924;28.194;2022-07-15T00:02:55;85716.00;;;14.25;20.97
40948;BME280;49382;-25.924;28.194;2022-07-15T00:05:21;85719.27;;;14.82;20.00
40948;BME280;49382;-25.924;28.194;2022-07-15T00:07:47;85719.03;;;14.77;20.10
40948;BME280;49382;-25.924;28.194;2022-07-15T00:10:12;85723.17;;;15.24;19.98
40948;BME280;49382;-25.924;28.194;2022-07-15T00:12:37;85727.15;;;14.96;19.91
40948;BME280;49382;-25.924;28.194;2022-07-15T00:15:03;85727.19;;;14.96;20.12
40948;BME280;49382;-25.924;28.194;2022-07-15T00:17:28;85725.22;;;14.61;20.57
40948;BME280;49382;-25.924;28.194;2022-07-15T00:19:54;85721.49;;;15.05;20.18
40948;BME280;49382;-25.924;28.194;2022-07-15T00:22:19;85721.99;;;14.85;20.41
40948;BME280;49382;-25.924;28.194;2022-07-15T00:24:45;85721.71;;;14.44;20.49
40948;BME280;49382;-25.924;28.194;2022-07-15T00:27:10;85722.11;;;14.40;20.31
40948;BME280;49382;-25.924;28.194;2022-07-15T00:29:35;85721.82;;;14.62;20.49
40948;BME280;49382;-25.924;28.194;2022-07-15T00:32:00;85721.23;;;14.89;20.32
40948;BME280;49382;-25.924;28.194;2022-07-15T00:34:26;85723.54;;;14.67;20.44
40948;BME280;49382;-25.924;28.194;2022-07-15T00:36:52;85722.82;;;14.46;21.33
40948;BME280;49382;-25.924;28.194;2022-07-15T00:39:18;85719.59;;;14.71;20.78
40948;BME280;49382;-25.924;28.194;2022-07-15T00:41:44;85719.83;;;14.75;20.64
40948;BME280;49382;-25.924;28.194;2022-07-15T00:44:09;85724.50;;;15.13;20.54
40948;BME280;49382;-25.924;28.194;2022-07-15T00:46:35;85723.28;;;15.00;20.51
40948;BME280;49382;-25.924;28.194;2022-07-15T00:48:59;85722.15;;;14.53;20.66
40948;BME280;49382;-25.924;28.194;2022-07-15T00:51:24;85721.90;;;14.78;20.48
40948;BME280;49382;-25.924;28.194;2022-07-15T00:53:50;85717.75;;;14.68;20.84
40948;BME280;49382;-25.924;28.194;2022-07-15T00:56:16;85716.34;;;14.42;20.80
40948;BME280;49382;-25.924;28.194;2022-07-15T00:58:41;85717.43;;;14.01;21.31
40948;BME280;49382;-25.924;28.194;2022-07-15T01:01:07;85714.98;;;14.53;20.81
40948;BME280;49382;-25.924;28.194;2022-07-15T01:03:32;85713.24;;;14.83;20.85
40948;BME280;49382;-25.924;28.194;2022-07-15T01:05:58;85711.07;;;15.17;20.99
40948;BME280;49382;-25.924;28.194;2022-07-15T01:08:22;85710.10;;;14.37;21.29
40948;BME280;49382;-25.924;28.194;2022-07-15T01:10:48;85713.32;;;14.49;21.24
40948;BME280;49382;-25.924;28.194;2022-07-15T01:13:13;85711.36;;;14.63;21.01
40948;BME280;49382;-25.924;28.194;2022-07-15T01:15:38;85713.49;;;14.09;21.41
40948;BME280;49382;-25.924;28.194;2022-07-15T01:18:04;85715.67;;;14.41;21.51
40948;BME280;49382;-25.924;28.194;2022-07-15T01:20:29;85714.58;;;14.36;21.27
40948;BME280;49382;-25.924;28.194;2022-07-15T01:22:55;85712.44;;;14.30;21.24
40948;BME280;49382;-25.924;28.194;2022-07-15T01:25:20;85715.72;;;14.10;21.44
40948;BME280;49382;-25.924;28.194;2022-07-15T01:27:45;85714.09;;;14.27;21.57
40948;BME280;49382;-25.924;28.194;2022-07-15T01:30:12;85718.10;;;14.37;21.20
40948;BME280;49382;-25.924;28.194;2022-07-15T01:32:36;85720.58;;;14.36;21.36
40948;BME280;49382;-25.924;28.194;2022-07-15T01:35:01;85720.63;;;14.62;20.97
40948;BME280;49382;-25.924;28.194;2022-07-15T01:37:27;85721.30;;;14.47;21.08
40948;BME280;49382;-25.924;28.194;2022-07-15T01:39:52;85717.92;;;14.24;21.32
40948;BME280;49382;-25.924;28.194;2022-07-15T01:42:17;85720.52;;;14.35;21.13
40948;BME280;49382;-25.924;28.194;2022-07-15T01:44:43;85720.08;;;14.35;21.18
40948;BME280;49382;-25.924;28.194;2022-07-15T01:47:08;85717.82;;;14.54;20.94
40948;BME280;49382;-25.924;28.194;2022-07-15T01:49:33;85715.28;;;14.50;20.91
40948;BME280;49382;-25.924;28.194;2022-07-15T01:52:00;85718.74;;;14.00;21.45
40948;BME280;49382;-25.924;28.194;2022-07-15T01:54:26;85712.59;;;14.57;21.01
40948;BME280;49382;-25.924;28.194;2022-07-15T01:56:50;85721.60;;;13.70;23.12
40948;BME280;49382;-25.924;28.194;2022-07-15T01:59:15;85728.36;;;13.98;21.94
40948;BME280;49382;-25.924;28.194;2022-07-15T02:01:41;85730.87;;;13.33;22.77
40948;BME280;49382;-25.924;28.194;2022-07-15T02:04:06;85732.83;;;13.00;23.54
40948;BME280;49382;-25.924;28.194;2022-07-15T02:06:31;85735.35;;;12.90;23.57
40948;BME280;49382;-25.924;28.194;2022-07-15T02:08:56;85729.64;;;13.43;23.22
40948;BME280;49382;-25.924;28.194;2022-07-15T02:11:22;85733.53;;;13.53;22.64
40948;BME280;49382;-25.924;28.194;2022-07-15T02:13:47;85732.47;;;13.66;22.65
40948;BME280;49382;-25.924;28.194;2022-07-15T02:16:12;85731.83;;;13.39;23.15
40948;BME280;49382;-25.924;28.194;2022-07-15T02:18:37;85736.03;;;13.46;22.47
40948;BME280;49382;-25.924;28.194;2022-07-15T02:21:03;85733.80;;;13.31;23.58
40948;BME280;49382;-25.924;28.194;2022-07-15T02:23:28;85732.35;;;13.57;22.94
40948;BME280;49382;-25.924;28.194;2022-07-15T02:25:53;85730.75;;;13.37;22.90
40948;BME280;49382;-25.924;28.194;2022-07-15T02:28:18;85730.82;;;13.80;22.57
40948;BME280;49382;-25.924;28.194;2022-07-15T02:30:44;85735.08;;;13.39;22.47
40948;BME280;49382;-25.924;28.194;2022-07-15T02:33:10;85734.01;;;13.34;22.20
40948;BME280;49382;-25.924;28.194;2022-07-15T02:35:36;85735.92;;;13.26;22.51
40948;BME280;49382;-25.924;28.194;2022-07-15T02:38:01;85736.55;;;13.16;22.42
40948;BME280;49382;-25.924;28.194;2022-07-15T02:40:26;85737.48;;;13.73;22.07
40948;BME280;49382;-25.924;28.194;2022-07-15T02:42:53;85736.39;;;13.59;22.20
40948;BME280;49382;-25.924;28.194;2022-07-15T02:45:18;85732.39;;;13.09;22.61
40948;BME280;49382;-25.924;28.194;2022-07-15T02:47:42;85735.54;;;13.52;22.46
40948;BME280;49382;-25.924;28.194;2022-07-15T02:50:08;85734.25;;;13.41;22.54
40948;BME280;49382;-25.924;28.194;2022-07-15T02:52:33;85735.99;;;13.42;22.55
40948;BME280;49382;-25.924;28.194;2022-07-15T02:54:58;85735.41;;;13.70;22.44
40948;BME280;49382;-25.924;28.194;2022-07-15T02:57:24;85738.72;;;13.83;22.42
40948;BME280;49382;-25.924;28.194;2022-07-15T02:59:49;85741.17;;;13.46;22.39
40948;BME280;49382;-25.924;28.194;2022-07-15T03:02:14;85745.70;;;13.35;22.38
40948;BME280;49382;-25.924;28.194;2022-07-15T03:04:40;85749.75;;;13.37;22.64
40948;BME280;49382;-25.924;28.194;2022-07-15T03:07:05;85753.78;;;13.17;22.79
40948;BME280;49382;-25.924;28.194;2022-07-15T03:09:31;85749.78;;;12.89;23.09
40948;BME280;49382;-25.924;28.194;2022-07-15T03:11:56;85750.38;;;13.47;22.82
40948;BME280;49382;-25.924;28.194;2022-07-15T03:14:21;85751.00;;;13.44;22.83
40948;BME280;49382;-25.924;28.194;2022-07-15T03:16:47;85756.97;;;13.19;23.13
40948;BME280;49382;-25.924;28.194;2022-07-15T03:19:12;85756.58;;;13.08;23.17
40948;BME280;49382;-25.924;28.194;2022-07-15T03:21:37;85759.53;;;13.14;22.87
40948;BME280;49382;-25.924;28.194;2022-07-15T03:24:03;85761.98;;;12.83;22.87
40948;BME280;49382;-25.924;28.194;2022-07-15T03:26:28;85762.34;;;12.82;23.17
40948;BME280;49382;-25.924;28.194;2022-07-15T03:28:54;85764.36;;;13.16;22.84
40948;BME280;49382;-25.924;28.194;2022-07-15T03:31:20;85766.50;;;13.10;22.92
40948;BME280;49382;-25.924;28.194;2022-07-15T03:33:45;85763.82;;;12.80;23.30
40948;BME280;49382;-25.924;28.194;2022-07-15T03:36:11;85772.31;;;12.89;23.64
40948;BME280;49382;-25.924;28.194;2022-07-15T03:38:36;85780.03;;;12.67;23.65
40948;BME280;49382;-25.924;28.194;2022-07-15T03:41:01;85781.35;;;13.06;22.96
40948;BME280;49382;-25.924;28.194;2022-07-15T03:43:26;85788.45;;;13.24;22.88
40948;BME280;49382;-25.924;28.194;2022-07-15T03:45:52;85793.51;;;13.53;22.80
40948;BME280;49382;-25.924;28.194;2022-07-15T03:48:17;85794.82;;;13.42;22.88
40948;BME280;49382;-25.924;28.194;2022-07-15T03:50:42;85798.80;;;13.22;23.10
40948;BME280;49382;-25.924;28.194;2022-07-15T03:53:07;85802.70;;;13.07;23.30
40948;BME280;49382;-25.924;28.194;2022-07-15T03:55:33;85803.52;;;12.52;23.64
40948;BME280;49382;-25.924;28.194;2022-07-15T03:57:58;85803.24;;;12.55;23.85
40948;BME280;49382;-25.924;28.194;2022-07-15T04:00:24;85804.30;;;12.83;23.61
40948;BME280;49382;-25.924;28.194;2022-07-15T04:02:49;85806.32;;;12.83;23.84
40948;BME280;49382;-25.924;28.194;2022-07-15T04:05:14;85807.78;;;12.97;23.70
40948;BME280;49382;-25.924;28.194;2022-07-15T04:07:39;85816.33;;;12.51;24.08
40948;BME280;49382;-25.924;28.194;2022-07-15T04:10:06;85818.54;;;12.74;24.16
40948;BME280;49382;-25.924;28.194;2022-07-15T04:12:30;85818.09;;;12.47;24.21
40948;BME280;49382;-25.924;28.194;2022-07-15T04:14:56;85816.36;;;12.82;24.39
40948;BME280;49382;-25.924;28.194;2022-07-15T04:17:21;85821.66;;;12.42;24.92
40948;BME280;49382;-25.924;28.194;2022-07-15T04:19:46;85824.71;;;12.35;24.99
40948;BME280;49382;-25.924;28.194;2022-07-15T04:22:12;85828.88;;;12.49;24.45
40948;BME280;49382;-25.924;28.194;2022-07-15T04:24:39;85828.44;;;12.62;24.28
40948;BME280;49382;-25.924;28.194;2022-07-15T04:27:03;85835.83;;;12.75;24.48
40948;BME280;49382;-25.924;28.194;2022-07-15T04:29:28;85839.17;;;12.37;24.79
40948;BME280;49382;-25.924;28.194;2022-07-15T04:31:54;85843.50;;;12.44;24.88
40948;BME280;49382;-25.924;28.194;2022-07-15T04:34:19;85844.91;;;12.67;24.64
40948;BME280;49382;-25.924;28.194;2022-07-15T04:36:45;85849.15;;;12.22;25.38
40948;BME280;49382;-25.924;28.194;2022-07-15T04:39:11;85853.96;;;12.49;24.95
40948;BME280;49382;-25.924;28.194;2022-07-15T04:41:36;85860.70;;;12.40;25.00
40948;BME280;49382;-25.924;28.194;2022-07-15T04:44:01;85864.83;;;12.32;25.09
40948;BME280;49382;-25.924;28.194;2022-07-15T04:46:27;85870.27;;;12.31;25.19
40948;BME280;49382;-25.924;28.194;2022-07-15T04:48:52;85873.91;;;12.36;25.21
40948;BME280;49382;-25.924;28.194;2022-07-15T04:51:17;85880.99;;;12.46;25.20
40948;BME280;49382;-25.924;28.194;2022-07-15T04:53:42;85887.82;;;12.61;25.16
40948;BME280;49382;-25.924;28.194;2022-07-15T04:56:08;85892.84;;;11.99;25.73
40948;BME280;49382;-25.924;28.194;2022-07-15T04:58:33;85896.09;;;12.57;25.44
40948;BME280;49382;-25.924;28.194;2022-07-15T05:00:59;85903.89;;;12.31;25.76
40948;BME280;49382;-25.924;28.194;2022-07-15T05:03:24;85911.47;;;12.39;25.66
40948;BME280;49382;-25.924;28.194;2022-07-15T05:05:50;85913.56;;;12.52;25.67
40948;BME280;49382;-25.924;28.194;2022-07-15T05:08:15;85913.30;;;11.84;26.77
40948;BME280;49382;-25.924;28.194;2022-07-15T05:10:41;85916.42;;;12.09;26.11
40948;BME280;49382;-25.924;28.194;2022-07-15T05:13:06;85919.19;;;12.38;26.00
40948;BME280;49382;-25.924;28.194;2022-07-15T05:15:32;85920.50;;;12.47;26.09
40948;BME280;49382;-25.924;28.194;2022-07-15T05:17:57;85924.82;;;12.41;26.08
40948;BME280;49382;-25.924;28.194;2022-07-15T05:20:22;85923.96;;;12.91;25.86
40948;BME280;49382;-25.924;28.194;2022-07-15T05:22:49;85927.11;;;12.76;25.89
40948;BME280;49382;-25.924;28.194;2022-07-15T05:25:14;85925.72;;;12.80;26.22
40948;BME280;49382;-25.924;28.194;2022-07-15T05:27:39;85934.04;;;12.34;26.70
40948;BME280;49382;-25.924;28.194;2022-07-15T05:30:06;85934.75;;;13.01;26.27
40948;BME280;49382;-25.924;28.194;2022-07-15T05:32:30;85935.50;;;12.74;26.51
40948;BME280;49382;-25.924;28.194;2022-07-15T05:34:55;85938.58;;;13.01;26.34
40948;BME280;49382;-25.924;28.194;2022-07-15T05:37:21;85937.87;;;13.10;26.55
40948;BME280;49382;-25.924;28.194;2022-07-15T05:39:46;85941.76;;;13.18;26.99
40948;BME280;49382;-25.924;28.194;2022-07-15T05:42:12;85947.87;;;12.84;27.28
40948;BME280;49382;-25.924;28.194;2022-07-15T05:44:37;85952.12;;;13.22;27.21
40948;BME280;49382;-25.924;28.194;2022-07-15T05:47:02;85957.12;;;13.38;27.25
40948;BME280;49382;-25.924;28.194;2022-07-15T05:49:27;85952.98;;;13.69;26.87
40948;BME280;49382;-25.924;28.194;2022-07-15T05:51:53;85956.48;;;13.53;27.58
40948;BME280;49382;-25.924;28.194;2022-07-15T05:54:18;85959.06;;;14.01;27.30
40948;BME280;49382;-25.924;28.194;2022-07-15T05:56:44;85964.16;;;14.23;27.36
40948;BME280;49382;-25.924;28.194;2022-07-15T05:59:10;85966.59;;;13.92;28.29
40948;BME280;49382;-25.924;28.194;2022-07-15T06:01:35;85969.90;;;14.39;28.26
40948;BME280;49382;-25.924;28.194;2022-07-15T06:04:01;85973.53;;;14.26;28.28
40948;BME280;49382;-25.924;28.194;2022-07-15T06:06:27;85973.69;;;14.02;29.00
40948;BME280;49382;-25.924;28.194;2022-07-15T06:08:52;85975.81;;;14.64;28.45
40948;BME280;49382;-25.924;28.194;2022-07-15T06:11:18;85976.60;;;14.59;28.44
40948;BME280;49382;-25.924;28.194;2022-07-15T06:13:43;85981.37;;;15.18;28.62
40948;BME280;49382;-25.924;28.194;2022-07-15T06:16:08;85979.16;;;15.86;27.65
40948;BME280;49382;-25.924;28.194;2022-07-15T06:18:34;85983.93;;;15.90;27.10
40948;BME280;49382;-25.924;28.194;2022-07-15T06:20:59;85989.18;;;15.42;28.09
40948;BME280;49382;-25.924;28.194;2022-07-15T06:23:24;85992.62;;;16.00;27.13
40948;BME280;49382;-25.924;28.194;2022-07-15T06:25:49;85996.85;;;16.14;27.10
40948;BME280;49382;-25.924;28.194;2022-07-15T06:28:14;86001.77;;;16.59;26.81
40948;BME280;49382;-25.924;28.194;2022-07-15T06:30:40;86002.45;;;16.75;26.32
40948;BME280;49382;-25.924;28.194;2022-07-15T06:33:06;86002.65;;;17.15;26.34
40948;BME280;49382;-25.924;28.194;2022-07-15T06:35:31;86009.48;;;16.93;27.02
40948;BME280;49382;-25.924;28.194;2022-07-15T06:37:56;86011.94;;;16.85;26.34
40948;BME280;49382;-25.924;28.194;2022-07-15T06:40:22;86009.56;;;17.55;25.38
40948;BME280;49382;-25.924;28.194;2022-07-15T06:42:47;86014.41;;;17.97;25.30
40948;BME280;49382;-25.924;28.194;2022-07-15T06:45:13;86020.48;;;17.72;25.73
40948;BME280;49382;-25.924;28.194;2022-07-15T06:47:40;86017.83;;;17.78;25.46
40948;BME280;49382;-25.924;28.194;2022-07-15T06:50:05;86022.46;;;17.95;25.53
40948;BME280;49382;-25.924;28.194;2022-07-15T06:52:30;86029.13;;;18.45;24.71
40948;BME280;49382;-25.924;28.194;2022-07-15T06:54:55;86031.99;;;19.12;23.92
40948;BME280;49382;-25.924;28.194;2022-07-15T06:57:21;86035.70;;;19.39;23.40
40948;BME280;49382;-25.924;28.194;2022-07-15T06:59:47;86042.14;;;19.38;23.41
40948;BME280;49382;-25.924;28.194;2022-07-15T07:02:12;86043.99;;;18.70;24.14
40948;BME280;49382;-25.924;28.194;2022-07-15T07:04:37;86053.00;;;18.33;24.82
40948;BME280;49382;-25.924;28.194;2022-07-15T07:07:03;86053.25;;;19.17;24.29
40948;BME280;49382;-25.924;28.194;2022-07-15T07:09:28;86057.07;;;20.17;23.72
40948;BME280;49382;-25.924;28.194;2022-07-15T07:11:53;86066.19;;;20.35;23.27
40948;BME280;49382;-25.924;28.194;2022-07-15T07:14:19;86067.95;;;18.28;24.74
40948;BME280;49382;-25.924;28.194;2022-07-15T07:16:44;86067.80;;;19.31;24.66
40948;BME280;49382;-25.924;28.194;2022-07-15T07:19:09;86076.97;;;21.04;22.28
40948;BME280;49382;-25.924;28.194;2022-07-15T07:21:34;86076.37;;;20.07;23.85
40948;BME280;49382;-25.924;28.194;2022-07-15T07:24:00;86080.40;;;21.10;22.96
40948;BME280;49382;-25.924;28.194;2022-07-15T07:26:26;86082.52;;;21.30;22.06
40948;BME280;49382;-25.924;28.194;2022-07-15T07:28:51;86088.68;;;22.08;21.23
40948;BME280;49382;-25.924;28.194;2022-07-15T07:31:16;86088.65;;;21.39;21.42
40948;BME280;49382;-25.924;28.194;2022-07-15T07:33:42;86087.57;;;21.16;22.03
40948;BME280;49382;-25.924;28.194;2022-07-15T07:36:08;86094.42;;;22.24;20.88
40948;BME280;49382;-25.924;28.194;2022-07-15T07:38:32;86102.67;;;22.24;21.26
40948;BME280;49382;-25.924;28.194;2022-07-15T07:40:57;86093.89;;;21.37;21.34
40948;BME280;49382;-25.924;28.194;2022-07-15T07:43:23;86096.55;;;21.93;20.59
40948;BME280;49382;-25.924;28.194;2022-07-15T07:45:49;86099.32;;;22.09;20.74
40948;BME280;49382;-25.924;28.194;2022-07-15T07:48:14;86104.40;;;23.05;19.67
40948;BME280;49382;-25.924;28.194;2022-07-15T07:50:40;86104.98;;;23.80;19.56
40948;BME280;49382;-25.924;28.194;2022-07-15T07:53:05;86111.02;;;23.88;19.12
40948;BME280;49382;-25.924;28.194;2022-07-15T07:55:31;86098.78;;;24.20;18.42
40948;BME280;49382;-25.924;28.194;2022-07-15T07:57:58;86094.59;;;24.89;17.62
40948;BME280;49382;-25.924;28.194;2022-07-15T08:00:23;86094.70;;;25.14;17.48
40948;BME280;49382;-25.924;28.194;2022-07-15T08:02:48;86099.55;;;25.36;18.27
40948;BME280;49382;-25.924;28.194;2022-07-15T08:05:12;86099.14;;;24.80;16.98
40948;BME280;49382;-25.924;28.194;2022-07-15T08:07:38;86095.12;;;26.34;16.27
40948;BME280;49382;-25.924;28.194;2022-07-15T08:10:04;86098.17;;;25.81;16.36
40948;BME280;49382;-25.924;28.194;2022-07-15T08:12:29;86093.61;;;26.38;15.85
40948;BME280;49382;-25.924;28.194;2022-07-15T08:14:54;86094.84;;;26.82;15.22
40948;BME280;49382;-25.924;28.194;2022-07-15T08:17:20;86092.37;;;27.55;15.00
40948;BME280;49382;-25.924;28.194;2022-07-15T08:19:46;86098.12;;;25.91;14.81
40948;BME280;49382;-25.924;28.194;2022-07-15T08:22:13;86091.55;;;27.15;14.18
40948;BME280;49382;-25.924;28.194;2022-07-15T08:24:37;86096.47;;;27.14;13.71
40948;BME280;49382;-25.924;28.194;2022-07-15T08:27:03;86094.05;;;27.81;13.47
40948;BME280;49382;-25.924;28.194;2022-07-15T08:29:29;86096.11;;;27.91;13.02
40948;BME280;49382;-25.924;28.194;2022-07-15T08:31:54;86094.59;;;29.10;12.78
40948;BME280;49382;-25.924;28.194;2022-07-15T08:34:20;86084.34;;;29.03;12.71
40948;BME280;49382;-25.924;28.194;2022-07-15T08:36:46;86089.03;;;29.20;12.79
40948;BME280;49382;-25.924;28.194;2022-07-15T08:39:11;86091.95;;;28.69;12.44
40948;BME280;49382;-25.924;28.194;2022-07-15T08:41:37;86083.36;;;28.63;12.43
40948;BME280;49382;-25.924;28.194;2022-07-15T08:44:02;86081.73;;;29.21;12.77
40948;BME280;49382;-25.924;28.194;2022-07-15T08:46:28;86075.54;;;29.94;13.08
40948;BME280;49382;-25.924;28.194;2022-07-15T08:48:58;86072.70;;;30.76;12.30
40948;BME280;49382;-25.924;28.194;2022-07-15T08:51:22;86073.10;;;30.40;12.15
40948;BME280;49382;-25.924;28.194;2022-07-15T08:53:45;86068.17;;;30.74;11.39
40948;BME280;49382;-25.924;28.194;2022-07-15T08:56:10;86069.13;;;32.09;11.10
40948;BME280;49382;-25.924;28.194;2022-07-15T08:58:36;86069.23;;;31.50;11.94
40948;BME280;49382;-25.924;28.194;2022-07-15T09:01:01;86067.54;;;30.06;11.89
40948;BME280;49382;-25.924;28.194;2022-07-15T09:03:27;86064.31;;;30.41;11.45
40948;BME280;49382;-25.924;28.194;2022-07-15T09:05:52;86065.18;;;29.92;11.88
40948;BME280;49382;-25.924;28.194;2022-07-15T09:08:18;86059.13;;;30.82;11.83
40948;BME280;49382;-25.924;28.194;2022-07-15T09:10:47;86058.66;;;31.53;11.30
40948;BME280;49382;-25.924;28.194;2022-07-15T09:13:10;86053.20;;;29.40;11.79
40948;BME280;49382;-25.924;28.194;2022-07-15T09:15:36;86052.18;;;30.15;11.86
40948;BME280;49382;-25.924;28.194;2022-07-15T09:18:08;86052.34;;;30.70;12.05
40948;BME280;49382;-25.924;28.194;2022-07-15T09:20:28;86047.93;;;30.83;12.61
40948;BME280;49382;-25.924;28.194;2022-07-15T09:22:54;86042.84;;;29.16;12.65
40948;BME280;49382;-25.924;28.194;2022-07-15T09:25:18;86044.55;;;30.33;12.92
40948;BME280;49382;-25.924;28.194;2022-07-15T09:27:44;86052.58;;;29.14;13.45
40948;BME280;49382;-25.924;28.194;2022-07-15T09:30:14;86040.80;;;29.24;13.90
40948;BME280;49382;-25.924;28.194;2022-07-15T09:32:34;86037.72;;;28.80;14.01
40948;BME280;49382;-25.924;28.194;2022-07-15T09:35:02;86031.99;;;27.38;15.70
40948;BME280;49382;-25.924;28.194;2022-07-15T09:37:24;86034.36;;;26.39;16.00
40948;BME280;49382;-25.924;28.194;2022-07-15T09:39:55;86027.91;;;26.42;16.25
40948;BME280;49382;-25.924;28.194;2022-07-15T09:42:15;86033.50;;;26.59;15.36
40948;BME280;49382;-25.924;28.194;2022-07-15T09:44:41;86031.30;;;25.04;17.18
40948;BME280;49382;-25.924;28.194;2022-07-15T09:47:16;86028.20;;;25.50;17.09
40948;BME280;49382;-25.924;28.194;2022-07-15T09:49:34;86024.26;;;24.54;17.02
40948;BME280;49382;-25.924;28.194;2022-07-15T09:51:59;86024.01;;;24.51;18.63
40948;BME280;49382;-25.924;28.194;2022-07-15T09:54:23;86020.25;;;23.74;18.02
40948;BME280;49382;-25.924;28.194;2022-07-15T09:56:49;86017.47;;;24.71;17.62
40948;BME280;49382;-25.924;28.194;2022-07-15T09:59:14;86021.30;;;23.34;18.09
40948;BME280;49382;-25.924;28.194;2022-07-15T10:01:40;86021.70;;;23.22;18.10
40948;BME280;49382;-25.924;28.194;2022-07-15T10:04:05;86014.64;;;24.10;17.45
40948;BME280;49382;-25.924;28.194;2022-07-15T10:06:29;86016.24;;;23.55;18.39
40948;BME280;49382;-25.924;28.194;2022-07-15T10:08:55;86009.86;;;23.89;18.39
40948;BME280;49382;-25.924;28.194;2022-07-15T10:11:22;86003.30;;;23.06;19.15
40948;BME280;49382;-25.924;28.194;2022-07-15T10:16:22;85998.21;;;23.31;18.79
40948;BME280;49382;-25.924;28.194;2022-07-15T10:18:48;85996.23;;;22.93;19.40
40948;BME280;49382;-25.924;28.194;2022-07-15T10:21:12;85994.64;;;22.13;19.38
40948;BME280;49382;-25.924;28.194;2022-07-15T10:26:00;85992.49;;;22.26;18.72
40948;BME280;49382;-25.924;28.194;2022-07-15T10:28:24;85982.73;;;22.64;19.16
40948;BME280;49382;-25.924;28.194;2022-07-15T10:30:44;85978.01;;;22.88;19.87
40948;BME280;49382;-25.924;28.194;2022-07-15T10:33:14;85974.63;;;22.76;18.78
40948;BME280;49382;-25.924;28.194;2022-07-15T10:35:37;85975.13;;;22.17;17.81
40948;BME280;49382;-25.924;28.194;2022-07-15T10:42:57;85961.87;;;22.47;18.31
40948;BME280;49382;-25.924;28.194;2022-07-15T10:45:18;85961.88;;;21.84;18.57
40948;BME280;49382;-25.924;28.194;2022-07-15T10:47:44;85955.31;;;22.63;18.61
40948;BME280;49382;-25.924;28.194;2022-07-15T10:52:35;85947.93;;;22.41;18.64
40948;BME280;49382;-25.924;28.194;2022-07-15T10:55:02;85935.83;;;21.62;19.54
40948;BME280;49382;-25.924;28.194;2022-07-15T10:59:54;85930.70;;;21.68;17.95
40948;BME280;49382;-25.924;28.194;2022-07-15T11:02:19;85922.67;;;20.95;18.56
40948;BME280;49382;-25.924;28.194;2022-07-15T11:04:44;85927.01;;;21.29;18.02
40948;BME280;49382;-25.924;28.194;2022-07-15T11:12:00;85918.62;;;21.40;17.85
40948;BME280;49382;-25.924;28.194;2022-07-15T11:16:57;85912.64;;;22.22;17.64
40948;BME280;49382;-25.924;28.194;2022-07-15T11:19:18;85910.78;;;21.82;19.04
40948;BME280;49382;-25.924;28.194;2022-07-15T11:21:48;85905.24;;;21.90;18.13
40948;BME280;49382;-25.924;28.194;2022-07-15T11:24:08;85904.88;;;22.02;18.45
40948;BME280;49382;-25.924;28.194;2022-07-15T11:28:58;85900.72;;;22.30;18.78
40948;BME280;49382;-25.924;28.194;2022-07-15T11:31:25;85894.56;;;22.02;18.59
40948;BME280;49382;-25.924;28.194;2022-07-15T11:33:51;85901.30;;;21.61;17.65
40948;BME280;49382;-25.924;28.194;2022-07-15T11:36:19;85888.29;;;21.21;17.97
40948;BME280;49382;-25.924;28.194;2022-07-15T11:38:39;85889.43;;;21.25;17.97
40948;BME280;49382;-25.924;28.194;2022-07-15T11:41:05;85884.23;;;21.16;17.62
40948;BME280;49382;-25.924;28.194;2022-07-15T11:43:30;85883.35;;;21.63;17.60
40948;BME280;49382;-25.924;28.194;2022-07-15T11:46:01;85883.48;;;21.85;17.96
40948;BME280;49382;-25.924;28.194;2022-07-15T11:48:21;85885.86;;;22.14;17.60
40948;BME280;49382;-25.924;28.194;2022-07-15T11:50:53;85879.18;;;22.00;16.61
40948;BME280;49382;-25.924;28.194;2022-07-15T11:53:14;85875.45;;;21.81;16.89
40948;BME280;49382;-25.924;28.194;2022-07-15T11:58:03;85868.18;;;21.64;17.21
40948;BME280;49382;-25.924;28.194;2022-07-15T12:00:29;85866.91;;;21.65;17.60
40948;BME280;49382;-25.924;28.194;2022-07-15T12:05:19;85862.60;;;20.76;17.53
40948;BME280;49382;-25.924;28.194;2022-07-15T12:07:46;85860.63;;;20.63;18.19
40948;BME280;49382;-25.924;28.194;2022-07-15T12:10:11;85855.69;;;20.72;18.62
40948;BME280;49382;-25.924;28.194;2022-07-15T12:12:41;85850.51;;;20.92;17.88
40948;BME280;49382;-25.924;28.194;2022-07-15T12:15:01;85854.49;;;20.04;17.96
40948;BME280;49382;-25.924;28.194;2022-07-15T12:17:26;85855.30;;;20.45;17.30
40948;BME280;49382;-25.924;28.194;2022-07-15T12:19:52;85850.01;;;20.22;18.01
40948;BME280;49382;-25.924;28.194;2022-07-15T12:22:17;85845.85;;;20.66;17.50
40948;BME280;49382;-25.924;28.194;2022-07-15T12:24:44;85843.59;;;19.78;17.44
40948;BME280;49382;-25.924;28.194;2022-07-15T12:27:08;85838.78;;;19.97;16.80
40948;BME280;49382;-25.924;28.194;2022-07-15T12:29:34;85842.42;;;20.82;17.10
40948;BME280;49382;-25.924;28.194;2022-07-15T12:31:59;85839.19;;;21.01;16.44
40948;BME280;49382;-25.924;28.194;2022-07-15T12:36:55;85842.41;;;20.61;16.54
40948;BME280;49382;-25.924;28.194;2022-07-15T12:39:16;85838.13;;;20.29;16.18
40948;BME280;49382;-25.924;28.194;2022-07-15T12:41:42;85834.72;;;20.67;15.76
40948;BME280;49382;-25.924;28.194;2022-07-15T12:44:06;85835.14;;;20.80;16.01
40948;BME280;49382;-25.924;28.194;2022-07-15T12:48:56;85834.65;;;20.75;16.52
40948;BME280;49382;-25.924;28.194;2022-07-15T12:51:24;85840.49;;;20.71;16.81
40948;BME280;49382;-25.924;28.194;2022-07-15T12:53:47;85842.03;;;20.52;18.09
40948;BME280;49382;-25.924;28.194;2022-07-15T12:56:12;85843.01;;;20.37;18.14
40948;BME280;49382;-25.924;28.194;2022-07-15T12:58:38;85839.89;;;19.83;17.66
40948;BME280;49382;-25.924;28.194;2022-07-15T13:01:09;85835.62;;;20.73;16.78
40948;BME280;49382;-25.924;28.194;2022-07-15T13:03:28;85837.69;;;20.92;16.65